Terminal Aerodrome Forecast
Issued by NWS

Home | Current Version | Previous Version | Graphics & Text | Print | Product List | Glossary On
Versions: 1 2 3 4 5 6 7 8 9 10 11 12 13 14 15 16 17 18 19 20 21 22 23 24 25 26 27 28 29 30 31 32 33
000
FTUS43 KBIS 090318 AAA
TAFJMS
TAF AMD
KJMS 090318Z 0903/0924 01021KT P6SM BKN017 OVC025
      TEMPO 0903/0907 SCT017 BKN025
     FM090700 34011KT P6SM SCT025 BKN035
     FM091300 31006KT P6SM SCT250
     FM091600 25006KT P6SM SCT250
     FM091900 26012KT P6SM BKN250=

USA.gov is the U.S. government's official web portal to all federal, state and local government web resources and services.